createdAt,value
2022-09-04T00:02:42.056Z,3.58
2022-09-04T00:05:20.693Z,3.72
2022-09-04T00:08:21.238Z,3.75
2022-09-04T00:10:59.987Z,3.50
2022-09-04T00:13:38.865Z,3.20
2022-09-04T00:16:10.160Z,3.15
2022-09-04T00:18:58.366Z,3.47
2022-09-04T00:21:38.792Z,3.15
2022-09-04T00:24:10.679Z,2.90
2022-09-04T00:26:52.955Z,2.95
2022-09-04T00:29:19.784Z,3.15
2022-09-04T00:31:52.766Z,3.13
2022-09-04T00:34:32.595Z,3.10
2022-09-04T00:37:06.182Z,3.42
2022-09-04T00:39:43.592Z,2.92
2022-09-04T00:42:44.345Z,2.95
2022-09-04T00:45:29.117Z,2.85
2022-09-04T00:48:18.787Z,3.25
2022-09-04T00:51:16.073Z,3.67
2022-09-04T00:53:54.919Z,3.10
2022-09-04T00:56:52.115Z,3.30
2022-09-04T00:59:57.329Z,3.25
2022-09-04T01:02:56.529Z,2.88
2022-09-04T01:05:47.911Z,2.70
2022-09-04T01:08:35.100Z,2.70
2022-09-04T01:11:09.613Z,3.25
2022-09-04T01:13:51.840Z,3.22
2022-09-04T01:16:32.602Z,2.53
2022-09-04T01:19:15.445Z,1.75
2022-09-04T01:22:12.221Z,1.92
2022-09-04T01:24:59.564Z,2.35
2022-09-04T01:27:55.330Z,2.40
2022-09-04T01:30:22.830Z,3.58
2022-09-04T01:32:58.166Z,3.17
2022-09-04T01:35:48.233Z,3.17
2022-09-04T01:38:39.704Z,4.15
2022-09-04T01:43:45.287Z,3.30
2022-09-04T01:46:26.010Z,3.28
2022-09-04T01:49:20.288Z,3.40
2022-09-04T01:52:07.875Z,2.67
2022-09-04T01:54:43.765Z,2.92
2022-09-04T01:57:16.145Z,3.08
2022-09-04T02:00:02.733Z,4.38
2022-09-04T02:02:38.216Z,3.65
2022-09-04T02:05:20.321Z,3.40
2022-09-04T02:07:49.420Z,4.57
2022-09-04T02:10:37.611Z,4.13
2022-09-04T02:13:16.087Z,3.72
2022-09-04T02:16:07.108Z,4.30
2022-09-04T02:18:51.039Z,3.92
2022-09-04T02:21:25.686Z,3.75
2022-09-04T02:24:22.638Z,3.53
2022-09-04T02:27:14.951Z,3.60
2022-09-04T02:30:01.331Z,3.10
2022-09-04T02:32:37.968Z,3.30
2022-09-04T02:35:21.250Z,3.17
2022-09-04T02:38:05.886Z,2.90
2022-09-04T02:40:38.120Z,2.20
2022-09-04T02:43:25.191Z,2.55
2022-09-04T02:46:16.656Z,1.80
2022-09-04T02:49:03.515Z,1.70
2022-09-04T02:52:01.870Z,0.90
2022-09-04T02:54:58.011Z,1.40
2022-09-04T02:57:47.794Z,1.13
2022-09-04T03:00:21.195Z,2.00
2022-09-04T03:03:05.489Z,2.08
2022-09-04T03:05:44.846Z,1.88
2022-09-04T03:08:20.847Z,2.75
2022-09-04T03:10:56.398Z,3.22
2022-09-04T03:13:30.251Z,2.40
2022-09-04T03:16:21.599Z,2.95
2022-09-04T03:19:16.438Z,2.50
2022-09-04T03:22:04.201Z,2.97
2022-09-04T03:24:35.928Z,3.20
2022-09-04T03:27:06.826Z,3.30
2022-09-04T03:29:51.342Z,2.05
2022-09-04T03:32:28.922Z,2.65
2022-09-04T03:35:20.153Z,3.15
2022-09-04T03:38:14.590Z,2.15
2022-09-04T03:41:06.221Z,1.92
2022-09-04T03:44:04.961Z,2.15
2022-09-04T03:46:37.751Z,1.77
2022-09-04T03:49:11.741Z,1.65
2022-09-04T03:51:38.362Z,1.73
2022-09-04T03:54:39.225Z,1.75
2022-09-04T03:57:19.801Z,2.03
2022-09-04T04:00:07.068Z,2.67
2022-09-04T04:03:21.241Z,1.90
2022-09-04T04:06:14.881Z,3.58
2022-09-04T04:08:59.389Z,2.35
2022-09-04T04:11:58.186Z,2.13
2022-09-04T04:14:46.144Z,1.60
2022-09-04T04:17:47.679Z,1.30
2022-09-04T04:23:17.744Z,2.20
2022-09-04T04:25:52.735Z,4.22
2022-09-04T04:28:56.291Z,3.17
2022-09-04T04:31:44.633Z,3.55
2022-09-04T04:34:31.210Z,3.45
2022-09-04T04:37:11.035Z,2.53
2022-09-04T04:40:02.334Z,2.58
2022-09-04T04:42:40.785Z,2.45
2022-09-04T04:45:45.395Z,2.47
2022-09-04T04:48:42.780Z,2.90
2022-09-04T04:51:15.129Z,2.85
2022-09-04T04:53:41.732Z,2.33
2022-09-04T04:56:16.431Z,2.97
2022-09-04T04:59:23.452Z,3.10
2022-09-04T05:02:28.695Z,3.00
2022-09-04T05:05:03.807Z,2.83
2022-09-04T05:07:53.308Z,3.50
2022-09-04T05:10:32.020Z,3.25
2022-09-04T05:13:22.140Z,3.13
2022-09-04T05:16:09.074Z,2.80
2022-09-04T05:19:16.191Z,2.60
2022-09-04T05:22:13.706Z,2.28
2022-09-04T05:24:46.110Z,2.22
2022-09-04T05:27:49.939Z,2.53
2022-09-04T05:33:15.545Z,3.13
2022-09-04T05:38:50.913Z,3.85
2022-09-04T05:41:31.262Z,4.90
2022-09-04T05:44:18.445Z,4.18
2022-09-04T05:47:03.582Z,4.60
2022-09-04T05:49:45.064Z,4.57
2022-09-04T05:52:23.567Z,4.50
2022-09-04T05:55:02.078Z,4.75
2022-09-04T05:57:35.188Z,4.80
2022-09-04T06:00:16.489Z,5.45
2022-09-04T06:05:45.998Z,5.47
2022-09-04T06:08:31.668Z,5.75
2022-09-04T06:11:26.177Z,5.57
2022-09-04T06:13:55.756Z,6.00
2022-09-04T06:16:48.357Z,5.75
2022-09-04T06:19:36.004Z,5.88
2022-09-04T06:22:30.066Z,5.90
2022-09-04T06:25:02.454Z,5.80
2022-09-04T06:27:28.968Z,5.38
2022-09-04T06:30:04.386Z,4.60
2022-09-04T06:32:49.287Z,5.15
2022-09-04T06:35:24.294Z,5.43
2022-09-04T06:38:12.534Z,5.13
2022-09-04T06:41:08.692Z,5.82
2022-09-04T06:43:44.202Z,5.10
2022-09-04T06:46:22.677Z,5.55
2022-09-04T06:48:55.030Z,5.55
2022-09-04T06:51:47.462Z,4.75
2022-09-04T06:54:46.202Z,4.90
2022-09-04T06:57:40.397Z,5.15
2022-09-04T07:00:13.221Z,5.13
2022-09-04T07:02:51.705Z,5.07
2022-09-04T07:05:18.349Z,5.20
2022-09-04T07:08:21.588Z,5.57
2022-09-04T07:10:59.048Z,4.65
2022-09-04T07:13:53.046Z,4.60
2022-09-04T07:16:45.531Z,5.20
2022-09-04T07:19:33.388Z,4.75
2022-09-04T07:22:42.182Z,4.80
2022-09-04T07:25:32.864Z,5.18
2022-09-04T07:28:24.068Z,4.60
2022-09-04T07:31:20.470Z,4.55
2022-09-04T07:34:01.320Z,4.88
2022-09-04T07:36:43.973Z,5.53
2022-09-04T07:39:28.509Z,4.80
2022-09-04T07:42:07.196Z,4.40
2022-09-04T07:44:52.137Z,4.85
2022-09-04T07:47:27.553Z,4.60
2022-09-04T07:50:02.910Z,4.50
2022-09-04T07:52:35.174Z,4.68
2022-09-04T07:55:28.151Z,4.60
2022-09-04T07:58:28.876Z,4.65
2022-09-04T08:01:14.571Z,4.65
2022-09-04T08:03:54.604Z,4.10
2022-09-04T08:06:24.377Z,3.70
2022-09-04T08:09:11.209Z,3.40
2022-09-04T08:11:40.593Z,3.97
2022-09-04T08:14:25.742Z,4.15
2022-09-04T08:17:33.272Z,4.20
2022-09-04T08:20:32.058Z,3.88
2022-09-04T08:23:01.892Z,3.67
2022-09-04T08:25:40.599Z,4.30
2022-09-04T08:28:20.921Z,4.28
2022-09-04T08:31:05.910Z,3.90
2022-09-04T08:34:00.006Z,3.63
2022-09-04T08:36:55.802Z,3.13
2022-09-04T08:39:57.698Z,3.33
2022-09-04T08:42:41.737Z,2.25
2022-09-04T08:45:26.472Z,2.80
2022-09-04T08:48:01.867Z,3.00
2022-09-04T08:50:59.895Z,2.53
2022-09-04T08:54:03.713Z,2.80
2022-09-04T08:56:51.203Z,2.67
2022-09-04T08:59:39.886Z,2.53
2022-09-04T09:02:52.417Z,2.22
2022-09-04T09:05:27.956Z,2.50
2022-09-04T09:08:32.131Z,2.30
2022-09-04T09:11:50.130Z,2.25
2022-09-04T09:14:53.447Z,2.25
2022-09-04T09:17:34.562Z,1.92
2022-09-04T09:20:26.498Z,1.70
2022-09-04T09:23:19.835Z,2.00
2022-09-04T09:25:55.520Z,1.85
2022-09-04T09:28:37.358Z,1.70
2022-09-04T09:31:09.798Z,1.80
2022-09-04T09:33:54.473Z,1.60
2022-09-04T09:36:53.232Z,1.70
2022-09-04T09:40:02.672Z,1.90
2022-09-04T09:42:51.296Z,1.60
2022-09-04T09:45:54.933Z,1.60
2022-09-04T09:48:21.538Z,1.70
2022-09-04T09:51:15.984Z,1.60
2022-09-04T09:53:59.146Z,1.70
2022-09-04T09:56:25.732Z,1.90
2022-09-04T09:59:30.212Z,1.35
2022-09-04T10:02:12.101Z,1.75
2022-09-04T10:05:16.580Z,1.60
2022-09-04T10:08:11.076Z,1.83
2022-09-04T10:10:54.610Z,1.33
2022-09-04T10:13:58.680Z,1.75
2022-09-04T10:16:40.267Z,1.80
2022-09-04T10:19:43.012Z,1.83
2022-09-04T10:22:51.617Z,1.67
2022-09-04T10:25:32.312Z,1.35
2022-09-04T10:28:49.696Z,1.60
2022-09-04T10:31:47.211Z,1.73
2022-09-04T10:34:32.922Z,1.67
2022-09-04T10:37:19.276Z,1.55
2022-09-04T10:40:22.942Z,1.42
2022-09-04T10:42:55.519Z,1.52
2022-09-04T10:45:39.293Z,1.50
2022-09-04T10:48:37.033Z,1.52
2022-09-04T10:51:04.252Z,2.00
2022-09-04T10:54:16.899Z,1.70
2022-09-04T10:56:55.415Z,1.58
2022-09-04T10:59:59.330Z,1.40
2022-09-04T11:02:57.111Z,1.55
2022-09-04T11:05:33.307Z,2.30
2022-09-04T11:08:18.754Z,1.40
2022-09-04T11:10:57.832Z,1.60
2022-09-04T11:13:42.819Z,1.40
2022-09-04T11:16:40.005Z,1.50
2022-09-04T11:19:51.204Z,1.30
2022-09-04T11:25:06.818Z,1.20
2022-09-04T11:27:39.113Z,1.27
2022-09-04T11:30:12.138Z,1.50
2022-09-04T11:33:06.663Z,1.40
2022-09-04T11:35:45.370Z,1.30
2022-09-04T11:38:29.869Z,1.40
2022-09-04T11:41:05.342Z,1.20
2022-09-04T11:43:41.048Z,1.55
2022-09-04T11:46:22.564Z,1.50
2022-09-04T11:49:26.676Z,1.60
2022-09-04T11:52:13.864Z,1.10
2022-09-04T11:55:05.164Z,2.13
2022-09-04T11:58:08.547Z,1.40
2022-09-04T12:00:58.424Z,1.50
2022-09-04T12:03:27.839Z,1.45
2022-09-04T12:06:19.958Z,1.35
2022-09-04T12:09:30.956Z,1.30
2022-09-04T12:12:16.532Z,1.35
2022-09-04T12:14:54.807Z,1.30
2022-09-04T12:17:38.092Z,1.52
2022-09-04T12:20:25.408Z,1.40
2022-09-04T12:23:33.279Z,1.60
2022-09-04T12:26:21.535Z,1.23
2022-09-04T12:29:06.506Z,1.40
2022-09-04T12:32:14.161Z,1.17
2022-09-04T12:35:02.738Z,1.35
2022-09-04T12:37:50.832Z,1.25
2022-09-04T12:40:56.473Z,1.30
2022-09-04T12:43:42.846Z,2.67
2022-09-04T12:46:35.763Z,1.20
2022-09-04T12:49:39.997Z,1.50
2022-09-04T12:52:09.370Z,1.40
2022-09-04T12:55:35.846Z,1.30
2022-09-04T12:58:34.418Z,1.33
2022-09-04T13:01:22.584Z,1.25
2022-09-04T13:03:59.815Z,1.30
2022-09-04T13:06:38.531Z,1.67
2022-09-04T13:09:36.218Z,1.45
2022-09-04T13:12:26.931Z,1.55
2022-09-04T13:15:05.237Z,1.60
2022-09-04T13:18:16.282Z,1.33
2022-09-04T13:21:02.384Z,1.40
2022-09-04T13:23:59.356Z,1.25
2022-09-04T13:26:35.051Z,1.30
2022-09-04T13:29:29.606Z,1.52
2022-09-04T13:32:34.123Z,1.50
2022-09-04T13:35:25.037Z,1.30
2022-09-04T13:40:46.558Z,1.20
2022-09-04T13:43:30.219Z,1.55
2022-09-04T13:46:03.139Z,1.70
2022-09-04T13:48:52.144Z,1.45
2022-09-04T13:51:24.235Z,1.30
2022-09-04T13:54:11.398Z,1.27
2022-09-04T13:56:53.007Z,1.60
2022-09-04T13:59:22.586Z,1.65
2022-09-04T14:01:54.426Z,1.60
2022-09-04T14:04:28.034Z,1.63
2022-09-04T14:07:02.454Z,1.08
2022-09-04T14:09:34.192Z,1.50
2022-09-04T14:12:32.155Z,1.30
2022-09-04T14:15:28.470Z,1.35
2022-09-04T14:18:13.926Z,1.20
2022-09-04T14:21:01.435Z,1.17
2022-09-04T14:23:53.066Z,1.05
2022-09-04T14:26:25.778Z,1.38
2022-09-04T14:29:15.671Z,1.45
2022-09-04T14:32:11.676Z,1.33
2022-09-04T14:35:08.528Z,1.35
2022-09-04T14:37:54.220Z,1.65
2022-09-04T14:40:29.782Z,1.60
2022-09-04T14:43:28.498Z,1.35
2022-09-04T14:46:11.052Z,1.20
2022-09-04T14:48:40.880Z,1.50
2022-09-04T14:51:40.038Z,1.33
2022-09-04T14:54:09.167Z,1.38
2022-09-04T14:56:52.893Z,1.30
2022-09-04T14:59:28.335Z,1.65
2022-09-04T15:02:18.111Z,1.45
2022-09-04T15:05:01.484Z,1.55
2022-09-04T15:07:43.434Z,1.75
2022-09-04T15:10:19.247Z,1.10
2022-09-04T15:12:52.114Z,1.65
2022-09-04T15:15:30.440Z,1.55
2022-09-04T15:18:23.748Z,1.27
2022-09-04T15:21:12.819Z,2.47
2022-09-04T15:23:44.689Z,1.38
2022-09-04T15:26:22.543Z,1.50
2022-09-04T15:28:55.332Z,1.40
2022-09-04T15:31:41.926Z,2.08
2022-09-04T15:34:20.773Z,2.17
2022-09-04T15:36:48.006Z,1.35
2022-09-04T15:39:29.345Z,1.20
2022-09-04T15:41:56.125Z,1.23
2022-09-04T15:44:39.667Z,1.67
2022-09-04T15:47:23.195Z,1.30
2022-09-04T15:49:55.396Z,1.33
2022-09-04T15:52:41.229Z,1.00
2022-09-04T15:55:29.451Z,0.93
2022-09-04T15:58:16.286Z,1.27
2022-09-04T16:01:16.913Z,1.20
2022-09-04T16:04:12.647Z,1.40
2022-09-04T16:07:20.441Z,1.00
2022-09-04T16:09:54.752Z,1.10
2022-09-04T16:12:30.675Z,1.10
2022-09-04T16:15:05.229Z,1.38
2022-09-04T16:17:41.828Z,1.35
2022-09-04T16:20:30.871Z,1.23
2022-09-04T16:23:04.502Z,1.20
2022-09-04T16:25:40.119Z,1.30
2022-09-04T16:28:15.507Z,1.02
2022-09-04T16:30:47.698Z,1.00
2022-09-04T16:33:30.686Z,1.30
2022-09-04T16:36:24.704Z,1.23
2022-09-04T16:39:05.634Z,1.25
2022-09-04T16:41:37.737Z,1.50
2022-09-04T16:44:26.691Z,1.10
2022-09-04T16:47:06.084Z,1.33
2022-09-04T16:49:51.342Z,1.20
2022-09-04T16:52:21.978Z,1.25
2022-09-04T16:57:34.092Z,1.50
2022-09-04T17:00:08.012Z,1.10
2022-09-04T17:02:53.502Z,1.13
2022-09-04T17:05:49.427Z,1.13
2022-09-04T17:08:25.003Z,1.00
2022-09-04T17:10:51.700Z,1.55
2022-09-04T17:13:27.980Z,1.25
2022-09-04T17:16:02.400Z,1.30
2022-09-04T17:18:30.590Z,1.70
2022-09-04T17:23:53.551Z,1.30
2022-09-04T17:28:57.382Z,1.20
2022-09-04T17:29:10.277Z,1.50
2022-09-04T17:29:52.687Z,1.20
2022-09-04T17:34:01.634Z,1.30
2022-09-04T17:40:39.499Z,1.40
2022-09-04T17:40:54.773Z,1.30
2022-09-04T17:41:36.136Z,1.33
2022-09-04T17:44:46.225Z,1.30
2022-09-04T17:47:38.034Z,1.40
2022-09-04T17:50:13.938Z,1.42
2022-09-04T17:53:01.913Z,1.65
2022-09-04T17:55:31.457Z,1.40
2022-09-04T17:58:11.570Z,1.70
2022-09-04T18:01:15.015Z,1.73
2022-09-04T18:04:19.807Z,1.63
2022-09-04T18:06:51.042Z,1.67
2022-09-04T18:09:27.363Z,2.20
2022-09-04T18:12:11.093Z,1.80
2022-09-04T18:14:47.587Z,1.92
2022-09-04T18:17:33.993Z,1.52
2022-09-04T18:20:21.940Z,1.80
2022-09-04T18:23:06.243Z,1.90
2022-09-04T18:25:42.179Z,2.00
2022-09-04T18:28:36.630Z,2.17
2022-09-04T18:37:07.652Z,2.17
2022-09-04T18:37:17.021Z,2.28
2022-09-04T18:37:44.601Z,3.13
2022-09-04T18:40:12.423Z,3.00
2022-09-04T18:48:54.920Z,3.33
2022-09-04T18:50:24.393Z,3.88
2022-09-04T18:50:46.486Z,4.50
2022-09-04T18:51:31.335Z,4.35
2022-09-04T18:54:11.218Z,4.65
2022-09-04T18:56:47.783Z,4.45
2022-09-04T18:59:21.230Z,4.30
2022-09-04T19:02:00.828Z,4.70
2022-09-04T19:04:41.543Z,4.85
2022-09-04T19:07:10.609Z,4.13
2022-09-04T19:10:02.270Z,3.78
2022-09-04T19:12:46.971Z,3.60
2022-09-04T19:15:27.420Z,3.38
2022-09-04T19:18:22.284Z,3.53
2022-09-04T19:20:53.728Z,2.80
2022-09-04T19:23:29.937Z,2.88
2022-09-04T19:26:02.029Z,2.90
2022-09-04T19:28:45.691Z,3.10
2022-09-04T19:31:30.065Z,3.20
2022-09-04T19:34:04.824Z,3.25
2022-09-04T19:36:36.603Z,3.53
2022-09-04T19:43:30.470Z,3.05
2022-09-04T19:46:03.654Z,3.17
2022-09-04T19:46:14.571Z,2.55
2022-09-04T19:48:20.703Z,2.83
2022-09-04T19:53:22.202Z,3.10
2022-09-04T19:53:54.742Z,2.53
2022-09-04T19:56:31.223Z,2.90
2022-09-04T19:59:05.516Z,2.60
2022-09-04T20:01:44.739Z,2.80
2022-09-04T20:04:26.346Z,2.88
2022-09-04T20:06:59.507Z,2.65
2022-09-04T20:09:34.108Z,2.55
2022-09-04T20:12:19.666Z,2.30
2022-09-04T20:14:55.047Z,2.72
2022-09-04T20:18:01.540Z,2.60
2022-09-04T20:20:44.992Z,2.55
2022-09-04T20:23:34.644Z,3.10
2022-09-04T20:26:20.154Z,2.58
2022-09-04T20:29:08.513Z,2.70
2022-09-04T20:31:46.338Z,2.88
2022-09-04T20:34:32.173Z,2.97
2022-09-04T20:37:24.949Z,3.00
2022-09-04T20:40:01.351Z,2.85
2022-09-04T20:42:35.421Z,3.50
2022-09-04T20:48:07.728Z,3.42
2022-09-04T20:52:58.597Z,3.33
2022-09-04T20:53:00.035Z,3.47
2022-09-04T20:54:15.235Z,3.08
2022-09-04T21:03:05.279Z,3.13
2022-09-04T21:03:06.761Z,3.33
2022-09-04T21:03:29.453Z,3.05
2022-09-04T21:06:06.981Z,3.30
2022-09-04T21:09:00.641Z,3.50
2022-09-04T21:11:50.422Z,3.95
2022-09-04T21:14:26.932Z,3.70
2022-09-04T21:17:33.937Z,3.63
2022-09-04T21:20:23.346Z,3.78
2022-09-04T21:23:32.608Z,3.20
2022-09-04T21:26:33.848Z,3.22
2022-09-04T21:29:17.602Z,3.10
2022-09-04T21:31:52.979Z,3.30
2022-09-04T21:35:02.187Z,3.50
2022-09-04T21:37:41.565Z,3.65
2022-09-04T21:40:49.504Z,2.90
2022-09-04T21:43:37.825Z,3.95
2022-09-04T21:46:13.600Z,4.10
2022-09-04T21:49:07.812Z,4.05
2022-09-04T21:55:29.847Z,3.38
2022-09-04T22:02:28.646Z,3.40
2022-09-04T22:02:37.796Z,3.40
2022-09-04T22:03:42.467Z,3.22
2022-09-04T22:06:15.737Z,3.45
2022-09-04T22:13:31.762Z,3.50
2022-09-04T22:13:42.099Z,3.35
2022-09-04T22:15:08.660Z,3.38
2022-09-04T22:17:35.187Z,3.58
2022-09-04T22:20:20.335Z,3.67
2022-09-04T22:23:18.433Z,3.42
2022-09-04T22:26:09.169Z,3.70
2022-09-04T22:28:51.229Z,3.20
2022-09-04T22:31:22.468Z,3.35
2022-09-04T22:34:15.134Z,3.05
2022-09-04T22:37:18.736Z,3.28
2022-09-04T22:39:52.119Z,3.13
2022-09-04T22:42:33.735Z,3.35
2022-09-04T22:45:09.664Z,2.88
2022-09-04T22:47:54.835Z,3.35
2022-09-04T22:50:25.347Z,3.00
2022-09-04T22:53:32.623Z,3.35
2022-09-04T22:56:23.497Z,3.00
2022-09-04T22:59:25.844Z,2.78
2022-09-04T23:02:34.547Z,2.58
2022-09-04T23:05:29.691Z,3.13
2022-09-04T23:13:48.403Z,2.75
2022-09-04T23:13:54.634Z,2.60
2022-09-04T23:14:19.012Z,3.08
2022-09-04T23:16:46.798Z,3.28
2022-09-04T23:26:34.728Z,2.65
2022-09-04T23:26:35.391Z,3.03
2022-09-04T23:26:43.574Z,2.58
2022-09-04T23:29:13.940Z,3.20
2022-09-04T23:31:53.123Z,3.55
2022-09-04T23:34:34.377Z,3.05
2022-09-04T23:37:25.651Z,2.90
2022-09-04T23:40:19.480Z,3.35
2022-09-04T23:42:52.098Z,3.25
2022-09-04T23:46:01.760Z,3.13
2022-09-04T23:49:06.783Z,3.50
2022-09-04T23:51:50.107Z,3.50
2022-09-04T23:54:34.028Z,3.00
2022-09-04T23:57:08.519Z,3.83
2022-09-04T23:59:54.346Z,3.03
